Time;durP1;ratioP1;P1;durP2;ratioP2;P2;SDS_P1;SDS_P2;PMS_P1;PMS_P2;Temp;Humidity;BMP_temperature;BMP_pressure;BME280_temperature;BME280_humidity;BME280_pressure;Samples;Min_cycle;Max_cycle;Signal;HPM_P1;HPM_P2
2022/06/24 00:01:57;;;;;;;;;;;20.90;99.90;;;;;;4982868;28;19910;-83
2022/06/24 00:04:24;;;;;;;;;;;21.00;99.90;;;;;;4989660;28;20401;-84
2022/06/24 00:06:49;;;;;;;;;;;20.80;99.90;;;;;;4988026;28;19917;-83
2022/06/24 00:09:15;;;;;;;;;;;20.90;99.90;;;;;;4988097;28;20012;-83
2022/06/24 00:11:42;;;;;;;;;;;20.80;99.90;;;;;;4983417;28;19913;-84
2022/06/24 00:14:08;;;;;;;;;;;20.60;99.90;;;;;;4992945;28;19933;-84
2022/06/24 00:16:53;;;;;;;;;;;20.60;99.90;;;;;;4994231;28;19925;-84
2022/06/24 00:19:18;;;;;;;;;;;19.70;99.90;;;;;;4986868;28;19914;-83
2022/06/24 00:21:44;;;;;;;;;;;20.60;99.90;;;;;;4990125;28;19972;-84
2022/06/24 00:24:20;;;;;;;;;;;20.50;99.90;;;;;;4987302;28;19961;-84
2022/06/24 00:26:46;;;;;;;;;;;20.40;99.90;;;;;;4988743;28;19983;-84
2022/06/24 00:29:15;;;;;;;;;;;20.50;99.90;;;;;;4989169;28;19917;-83
2022/06/24 00:31:41;;;;;;;;;;;20.60;99.90;;;;;;4981323;28;19914;-85
2022/06/24 00:34:07;;;;;;;;;;;;;;;;;;4987414;28;20270;-84
2022/06/24 00:36:32;;;;;;;;;;;20.40;99.90;;;;;;4986218;28;19914;-84
2022/06/24 00:38:59;;;;;;;;;;;20.50;99.90;;;;;;4984844;28;19984;-84
2022/06/24 00:41:25;;;;;;;;;;;19.30;99.90;;;;;;4978443;28;19918;-82
2022/06/24 00:43:51;;;;;;;;;;;;;;;;;;4985790;28;19913;-85
2022/06/24 00:46:18;;;;;;;;;;;19.50;99.90;;;;;;4985087;28;20166;-83
2022/06/24 00:48:44;;;;;;;;;;;;;;;;;;4989901;28;19914;-85
2022/06/24 00:51:10;;;;;;;;;;;;;;;;;;4985953;28;19918;-85
2022/06/24 00:54:02;;;;;;;;;;;19.50;99.90;;;;;;4979532;28;21246;-84
2022/06/24 00:56:27;;;;;;;;;;;20.10;99.90;;;;;;4982798;28;19929;-83
2022/06/24 00:58:54;;;;;;;;;;;20.20;99.90;;;;;;4980527;28;19913;-83
2022/06/24 01:01:45;;;;;;;;;;;20.10;99.90;;;;;;4992065;28;19909;-84
2022/06/24 01:04:11;;;;;;;;;;;19.20;99.90;;;;;;4980270;28;19914;-85
2022/06/24 01:06:37;;;;;;;;;;;;;;;;;;4983402;28;19917;-84
2022/06/24 01:09:03;;;;;;;;;;;;;;;;;;4988774;28;20772;-84
2022/06/24 01:11:30;;;;;;;;;;;20.00;99.90;;;;;;4981415;28;19918;-82
2022/06/24 01:13:56;;;;;;;;;;;19.00;99.90;;;;;;4986650;28;20430;-84
2022/06/24 01:16:22;;;;;;;;;;;;;;;;;;4989147;28;19910;-83
2022/06/24 01:18:54;;;;;;;;;;;19.70;99.90;;;;;;4987215;28;20005;-83
2022/06/24 01:21:20;;;;;;;;;;;;;;;;;;4988041;28;20001;-83
2022/06/24 01:23:46;;;;;;;;;;;;;;;;;;4986241;28;19937;-84
2022/06/24 01:26:11;;;;;;;;;;;18.90;99.90;;;;;;4981956;28;19921;-82
2022/06/24 01:28:37;;;;;;;;;;;;;;;;;;4984731;28;19910;-83
2022/06/24 01:31:03;;;;;;;;;;;;;;;;;;4988163;28;20358;-83
2022/06/24 01:33:28;;;;;;;;;;;19.80;99.90;;;;;;4989241;28;19910;-83
2022/06/24 01:35:54;;;;;;;;;;;18.70;99.90;;;;;;4993924;28;19963;-82
2022/06/24 01:38:19;;;;;;;;;;;18.70;99.90;;;;;;4990110;28;19918;-82
2022/06/24 01:40:45;;;;;;;;;;;18.70;99.90;;;;;;4991789;28;19921;-83
2022/06/24 01:43:10;;;;;;;;;;;19.50;99.90;;;;;;4989903;28;20069;-82
2022/06/24 01:45:36;;;;;;;;;;;18.50;99.90;;;;;;4995659;28;19917;-83
2022/06/24 01:48:01;;;;;;;;;;;18.90;99.90;;;;;;4991640;28;19926;-82
2022/06/24 01:50:27;;;;;;;;;;;;;;;;;;4987720;28;20026;-83
2022/06/24 01:52:52;;;;;;;;;;;18.70;99.90;;;;;;4989015;28;19913;-83
2022/06/24 01:55:18;;;;;;;;;;;19.60;99.90;;;;;;4989112;28;19910;-83
2022/06/24 01:57:44;;;;;;;;;;;;;;;;;;4994080;28;20514;-82
2022/06/24 02:00:10;;;;;;;;;;;;;;;;;;4989542;28;19916;-84
2022/06/24 02:02:36;;;;;;;;;;;;;;;;;;4987403;28;19961;-84
2022/06/24 02:05:01;;;;;;;;;;;19.60;99.90;;;;;;4988499;28;19917;-82
2022/06/24 02:07:26;;;;;;;;;;;18.60;99.90;;;;;;4991610;28;19918;-81
2022/06/24 02:15:21;;;;;;;;;;;18.50;99.90;;;;;;4985869;28;20666;-82
2022/06/24 02:17:46;;;;;;;;;;;19.60;99.90;;;;;;4983756;28;19914;-82
2022/06/24 02:20:12;;;;;;;;;;;18.60;99.90;;;;;;4983520;28;19998;-82
2022/06/24 02:22:37;;;;;;;;;;;18.70;99.90;;;;;;4990214;28;19972;-82
2022/06/24 02:25:03;;;;;;;;;;;;;;;;;;4992625;28;20012;-82
2022/06/24 02:27:29;;;;;;;;;;;;;;;;;;4990786;28;20428;-82
2022/06/24 02:29:55;;;;;;;;;;;19.60;99.90;;;;;;4989024;28;19969;-81
2022/06/24 02:32:20;;;;;;;;;;;18.40;99.90;;;;;;4984698;28;20333;-83
2022/06/24 02:34:46;;;;;;;;;;;19.20;99.90;;;;;;4984914;28;19918;-81
2022/06/24 02:37:11;;;;;;;;;;;19.50;99.90;;;;;;4990352;28;19916;-82
2022/06/24 02:39:36;;;;;;;;;;;18.40;99.90;;;;;;4989980;28;19917;-81
2022/06/24 02:42:02;;;;;;;;;;;19.50;99.90;;;;;;4988349;28;19909;-82
2022/06/24 02:44:28;;;;;;;;;;;;;;;;;;4992215;28;20012;-81
2022/06/24 02:46:53;;;;;;;;;;;19.60;99.90;;;;;;4985682;28;20426;-81
2022/06/24 02:49:19;;;;;;;;;;;;;;;;;;4983436;28;19914;-83
2022/06/24 02:51:45;;;;;;;;;;;;;;;;;;4988679;28;20440;-81
2022/06/24 02:54:10;;;;;;;;;;;19.50;99.90;;;;;;4983998;28;19914;-80
2022/06/24 02:56:36;;;;;;;;;;;18.30;99.90;;;;;;4986540;28;19964;-82
2022/06/24 02:59:02;;;;;;;;;;;;;;;;;;4984074;28;19917;-82
2022/06/24 03:01:27;;;;;;;;;;;18.30;99.90;;;;;;4984954;28;20327;-81
2022/06/24 03:03:53;;;;;;;;;;;18.70;99.90;;;;;;4987291;28;19924;-81
2022/06/24 03:06:19;;;;;;;;;;;;;;;;;;4988996;28;19926;-82
2022/06/24 03:08:44;;;;;;;;;;;18.30;99.90;;;;;;4993350;28;20028;-82
2022/06/24 03:11:12;;;;;;;;;;;19.30;99.90;;;;;;4993307;28;19919;-81
2022/06/24 03:13:37;;;;;;;;;;;18.30;99.90;;;;;;4997584;28;20392;-82
2022/06/24 03:16:03;;;;;;;;;;;18.40;99.90;;;;;;4985422;28;19949;-82
2022/06/24 03:18:28;;;;;;;;;;;18.30;99.90;;;;;;4985346;28;19910;-81
2022/06/24 03:20:54;;;;;;;;;;;;;;;;;;4991318;28;19914;-82
2022/06/24 03:23:20;;;;;;;;;;;;;;;;;;4988430;28;19913;-81
2022/06/24 03:25:45;;;;;;;;;;;19.10;99.90;;;;;;4990358;28;20446;-81
2022/06/24 03:28:11;;;;;;;;;;;;;;;;;;4989269;28;20381;-82
2022/06/24 03:30:37;;;;;;;;;;;;;;;;;;4993197;28;20404;-82
2022/06/24 03:33:03;;;;;;;;;;;18.30;99.90;;;;;;4990426;28;19917;-82
2022/06/24 03:35:28;;;;;;;;;;;;;;;;;;4986215;28;20326;-80
2022/06/24 03:37:55;;;;;;;;;;;;;;;;;;4986286;28;20199;-81
2022/06/24 03:40:20;;;;;;;;;;;18.50;99.90;;;;;;4988230;28;19924;-80
2022/06/24 03:42:46;;;;;;;;;;;;;;;;;;4987596;28;19973;-82
2022/06/24 03:45:12;;;;;;;;;;;;;;;;;;4993976;28;19960;-82
2022/06/24 03:47:38;;;;;;;;;;;;;;;;;;4984190;28;20410;-82
2022/06/24 03:50:04;;;;;;;;;;;;;;;;;;4988090;28;19965;-82
2022/06/24 03:52:30;;;;;;;0.93;0.28;;;;;;;;;;4983187;28;19918;-82
2022/06/24 03:54:56;;;;;;;2.15;0.43;;;;;;;;;;4989402;28;20026;-82
2022/06/24 03:57:21;;;;;;;0.52;0.30;;;19.10;99.90;;;;;;4987858;28;20474;-81
2022/06/24 03:59:47;;;;;;;3.35;0.30;;;;;;;;;;4988555;28;21930;-81
2022/06/24 04:02:13;;;;;;;2.47;0.40;;;;;;;;;;4987715;28;20034;-81
2022/06/24 04:04:39;;;;;;;2.30;0.20;;;;;;;;;;4988569;28;20022;-81
2022/06/24 04:07:05;;;;;;;3.40;0.60;;;;;;;;;;4986907;28;20380;-82
2022/06/24 04:09:31;;;;;;;0.40;0.30;;;19.00;99.90;;;;;;4990053;28;20109;-80
2022/06/24 04:11:57;;;;;;;0.70;0.70;;;;;;;;;;4991182;28;20376;-82
2022/06/24 04:17:07;;;;;;;2.45;0.70;;;;;;;;;;4984054;28;20410;-82
2022/06/24 04:19:36;;;;;;;;;;;18.20;99.90;;;;;;4982159;28;20022;-82
2022/06/24 04:22:02;;;;;;;;;;;;;;;;;;4990728;28;20003;-82
2022/06/24 04:24:27;;;;;;;;;;;18.40;99.90;;;;;;4979189;28;19969;-80
2022/06/24 04:26:53;;;;;;;;;;;18.70;99.90;;;;;;4986186;28;19924;-80
2022/06/24 04:29:18;;;;;;;;;;;18.40;99.90;;;;;;4981999;28;20041;-80
2022/06/24 04:31:44;;;;;;;;;;;;;;;;;;4983763;28;20318;-80
2022/06/24 04:34:09;;;;;;;;;;;18.30;99.90;;;;;;4983109;28;19948;-81
2022/06/24 04:36:37;;;;;;;;;;;;;;;;;;4977865;28;21524;-80
2022/06/24 04:39:02;;;;;;;;;;;;;;;;;;4977051;28;20334;-80
2022/06/24 04:41:29;;;;;;;;;;;;;;;;;;4975975;28;19964;-80
2022/06/24 04:43:54;;;;;;;;;;;;;;;;;;4982018;28;19914;-81
2022/06/24 04:46:21;;;;;;;;;;;;;;;;;;4974106;28;19933;-81
2022/06/24 04:48:46;;;;;;;;;;;;;;;;;;4977870;28;19949;-80
2022/06/24 04:51:12;;;;;;;;;;;18.90;99.90;;;;;;4983409;28;20366;-81
2022/06/24 04:53:38;;;;;;;;;;;18.70;99.90;;;;;;4979481;28;19921;-81
2022/06/24 04:56:03;;;;;;;;;;;18.80;99.90;;;;;;4978536;28;19925;-81
2022/06/24 04:58:29;;;;;;;;;;;20.00;99.90;;;;;;4980842;28;20358;-81
2022/06/24 05:00:55;;;;;;;;;;;;;;;;;;4982195;28;19925;-80
2022/06/24 05:03:20;;;;;;;;;;;18.90;99.90;;;;;;4976792;28;19971;-80
2022/06/24 05:05:46;;;;;;;;;;;;;;;;;;4987317;28;19909;-80
2022/06/24 05:08:12;;;;;;;;;;;;;;;;;;4984149;28;19925;-80
2022/06/24 05:10:38;;;;;;;;;;;;;;;;;;4991551;28;19910;-79
2022/06/24 05:13:03;;;;;;;;;;;19.20;99.90;;;;;;4987852;28;20619;-80
2022/06/24 05:15:29;;;;;;;;;;;19.20;99.90;;;;;;4988725;28;19918;-81
2022/06/24 05:17:55;;;;;;;3.35;0.80;;;;;;;;;;4984085;28;19918;-81
2022/06/24 05:20:21;;;;;;;1.05;0.38;;;;;;;;;;4989385;28;20035;-81
2022/06/24 05:22:47;;;;;;;1.00;0.68;;;;;;;;;;4982378;28;20143;-81
2022/06/24 05:25:12;;;;;;;3.40;0.77;;;20.00;99.90;;;;;;4992368;28;20034;-82
2022/06/24 05:27:38;;;;;;;1.85;0.47;;;;;;;;;;4989925;28;20733;-81
2022/06/24 05:30:05;;;;;;;1.00;0.52;;;;;;;;;;4993000;28;20026;-82
2022/06/24 05:32:31;;;;;;;1.85;0.30;;;;;;;;;;4989189;28;20026;-82
2022/06/24 05:34:57;;;;;;;1.42;0.30;;;21.70;99.90;;;;;;4994850;28;20094;-82
2022/06/24 05:37:23;;;;;;;4.55;0.75;;;21.20;99.90;;;;;;4989625;28;20037;-83
2022/06/24 05:39:49;;;;;;;0.20;0.20;;;;;;;;;;4992838;28;20030;-83
2022/06/24 05:42:15;;;;;;;2.22;0.38;;;;;;;;;;4994886;28;20406;-82
2022/06/24 05:44:41;;;;;;;1.15;0.50;;;;;;;;;;4990259;28;20033;-82
2022/06/24 05:47:06;;;;;;;0.35;0.20;;;21.80;99.90;;;;;;4991955;28;20069;-81
2022/06/24 05:49:32;;;;;;;2.75;0.40;;;;;;;;;;4988705;28;20027;-81
2022/06/24 05:51:58;;;;;;;1.40;0.30;;;;;;;;;;4998735;28;20026;-82
2022/06/24 05:57:09;;;;;;;3.70;0.40;;;;;;;;;;4996352;28;20081;-80
2022/06/24 05:59:38;;;;;;;0.75;0.40;;;;;;;;;;4985817;28;20022;-81
2022/06/24 06:02:06;;;;;;;4.95;0.75;;;22.00;99.90;;;;;;4996080;28;20050;-80
2022/06/24 06:04:32;;;;;;;5.40;0.73;;;;;;;;;;4996154;28;20058;-81
2022/06/24 06:06:58;;;;;;;2.88;0.52;;;22.90;99.90;;;;;;4998744;28;20463;-80
2022/06/24 06:09:23;;;;;;;;;;;23.60;99.90;;;;;;4993312;28;20080;-80
2022/06/24 06:11:49;;;;;;;4.15;0.55;;;;;;;;;;4992145;28;19910;-81
2022/06/24 06:14:15;;;;;;;1.45;0.32;;;;;;;;;;4990542;28;20044;-80
2022/06/24 06:16:40;;;;;;;1.05;0.63;;;23.50;99.90;;;;;;4989033;28;20037;-81
2022/06/24 06:19:06;;;;;;;1.08;0.40;;;;;;;;;;4990054;28;20038;-81
2022/06/24 06:21:32;;;;;;;0.40;0.30;;;;;;;;;;4994171;28;20030;-82
2022/06/24 06:23:58;;;;;;;;;;;24.30;99.90;;;;;;4991180;28;20427;-82
2022/06/24 06:26:23;;;;;;;;;;;24.80;99.90;;;;;;4990425;28;19925;-81
2022/06/24 06:28:49;;;;;;;0.70;0.20;;;25.90;99.90;;;;;;4991172;28;20354;-81
2022/06/24 06:31:14;;;;;;;;;;;26.80;99.90;;;;;;4997227;28;20050;-82
2022/06/24 06:33:40;;;;;;;0.82;0.52;;;28.70;99.90;;;;;;5003599;28;19902;-82
2022/06/24 06:36:08;;;;;;;4.75;0.75;;;31.40;99.30;;;;;;5012042;28;20030;-81
2022/06/24 06:38:34;;;;;;;4.55;0.60;;;;;;;;;;5007669;28;20046;-82
2022/06/24 06:41:00;;;;;;;7.03;0.63;;;35.10;79.10;;;;;;4996345;28;20045;-82
2022/06/24 06:43:26;;;;;;;2.15;0.35;;;;;;;;;;4989258;28;20084;-82
2022/06/24 06:45:52;;;;;;;0.77;0.55;;;;;;;;;;4993155;28;20030;-82
2022/06/24 06:48:19;;;;;;;3.53;0.20;;;37.90;64.70;;;;;;4986844;28;20026;-81
2022/06/24 06:50:45;;;;;;;0.30;0.20;;;39.70;63.30;;;;;;4990834;28;20033;-82
2022/06/24 06:53:11;;;;;;;1.63;0.40;;;;;;;;;;4990542;28;20394;-82
2022/06/24 06:55:37;;;;;;;1.65;0.25;;;;;;;;;;4990585;28;20014;-83
2022/06/24 06:58:03;;;;;;;3.05;0.30;;;;;;;;;;4990865;28;20023;-83
2022/06/24 07:00:28;;;;;;;;;;;40.60;48.30;;;;;;4995021;28;20030;-83
2022/06/24 07:02:54;;;;;;;1.25;0.40;;;40.80;49.60;;;;;;4987392;28;19941;-82
2022/06/24 07:05:20;;;;;;;1.67;0.32;;;;;;;;;;4990359;28;20026;-82
2022/06/24 07:07:45;;;;;;;1.92;0.68;;;41.40;49.50;;;;;;4996284;28;20038;-82
2022/06/24 07:10:11;;;;;;;1.40;0.35;;;;;;;;;;4988870;28;20033;-82
2022/06/24 07:12:37;;;;;;;0.93;0.30;;;42.60;51.20;;;;;;4987608;28;20031;-82
2022/06/24 07:15:03;;;;;;;2.28;0.75;;;41.70;45.20;;;;;;4991332;28;20030;-82
2022/06/24 07:17:29;;;;;;;0.35;0.25;;;;;;;;;;4990349;28;20046;-82
2022/06/24 07:19:55;;;;;;;3.88;0.52;;;39.90;53.40;;;;;;4989383;28;20034;-81
2022/06/24 07:22:21;;;;;;;2.15;0.40;;;;;;;;;;4991045;28;20553;-81
2022/06/24 07:24:46;;;;;;;3.90;0.50;;;;;;;;;;4995185;28;20041;-82
2022/06/24 07:27:12;;;;;;;;;;;35.90;48.90;;;;;;4994831;28;20054;-82
2022/06/24 07:29:37;;;;;;;;;;;36.10;52.40;;;;;;4985573;28;19941;-80
2022/06/24 07:32:04;;;;;;;;;;;34.30;50.80;;;;;;4986066;28;19918;-82
2022/06/24 07:34:33;;;;;;;;;;;33.40;54.00;;;;;;4989639;28;19914;-82
2022/06/24 07:36:59;;;;;;;;;;;32.90;55.40;;;;;;4985409;28;19956;-82
2022/06/24 07:39:24;;;;;;;;;;;33.20;57.70;;;;;;4989161;28;19968;-81
2022/06/24 07:41:51;;;;;;;;;;;34.00;57.20;;;;;;4985655;28;19910;-81
2022/06/24 07:44:16;;;;;;;;;;;35.20;54.30;;;;;;4987991;28;19956;-82
2022/06/24 07:46:42;;;;;;;;;;;34.90;53.40;;;;;;4981565;28;20378;-81
2022/06/24 07:49:07;;;;;;;;;;;34.80;52.60;;;;;;4990980;28;19910;-82
2022/06/24 07:51:33;;;;;;;;;;;35.00;50.50;;;;;;4988041;28;21590;-82
2022/06/24 07:53:58;;;;;;;;;;;35.10;52.50;;;;;;4989115;28;20378;-83
2022/06/24 07:59:08;;;;;;;;;;;32.30;56.80;;;;;;4989658;28;20017;-82
2022/06/24 08:01:33;;;;;;;;;;;31.50;58.60;;;;;;4988959;28;20051;-83
2022/06/24 08:03:59;;;;;;;;;;;30.70;58.60;;;;;;4991789;28;19914;-81
2022/06/24 08:06:25;;;;;;;;;;;30.90;61.00;;;;;;4988425;28;19987;-82
2022/06/24 08:08:50;;;;;;;;;;;31.40;62.10;;;;;;4988459;28;20021;-82
2022/06/24 08:11:16;;;;;;;;;;;31.30;61.80;;;;;;4990969;28;19913;-82
2022/06/24 08:13:41;;;;;;;;;;;30.00;62.70;;;;;;4986053;28;20362;-82
2022/06/24 08:16:07;;;;;;;;;;;29.80;64.40;;;;;;4986986;28;19917;-83
2022/06/24 08:18:32;;;;;;;;;;;28.60;65.50;;;;;;4991508;28;19971;-83
2022/06/24 08:20:58;;;;;;;;;;;28.10;67.00;;;;;;4990494;28;19945;-83
2022/06/24 08:23:23;;;;;;;;;;;28.40;68.70;;;;;;4990577;28;19914;-84
2022/06/24 08:25:49;;;;;;;;;;;28.10;68.30;;;;;;4984547;28;20401;-82
2022/06/24 08:28:14;;;;;;;;;;;28.60;67.50;;;;;;4993794;28;19922;-82
2022/06/24 08:30:40;;;;;;;;;;;28.50;67.90;;;;;;5000086;28;19918;-83
2022/06/24 08:33:05;;;;;;;;;;;28.30;70.40;;;;;;4990850;28;19955;-83
2022/06/24 08:35:31;;;;;;;;;;;28.10;70.40;;;;;;4984162;28;19924;-82
2022/06/24 08:37:57;;;;;;;;;;;27.80;69.60;;;;;;4985918;28;19916;-84
2022/06/24 08:40:24;;;;;;;;;;;28.40;70.00;;;;;;4993403;28;19918;-83
2022/06/24 08:42:51;;;;;;;;;;;29.80;69.30;;;;;;4980474;28;19917;-83
2022/06/24 08:45:17;;;;;;;;;;;31.90;64.50;;;;;;4993813;28;20001;-83
2022/06/24 08:47:43;;;;;;;;;;;34.00;58.50;;;;;;4992265;28;20366;-83
2022/06/24 08:50:09;;;;;;;;;;;35.50;55.80;;;;;;4988703;28;19917;-86
2022/06/24 08:52:34;;;;;;;;;;;36.30;55.70;;;;;;4992956;28;19969;-83
2022/06/24 08:55:01;;;;;;;;;;;36.10;50.10;;;;;;4994096;28;19909;-82
2022/06/24 08:57:27;;;;;;;;;;;34.20;54.00;;;;;;4990520;28;19973;-83
2022/06/24 08:59:52;;;;;;;;;;;33.40;55.50;;;;;;4985250;28;19937;-81
2022/06/24 09:02:18;;;;;;;;;;;34.60;57.10;;;;;;4996214;28;20005;-83
2022/06/24 09:04:44;;;;;;;;;;;34.70;53.80;;;;;;4988399;28;19945;-83
2022/06/24 09:07:16;;;;;;;;;;;34.70;53.90;;;;;;4996391;28;19917;-82
2022/06/24 09:09:42;;;;;;;;;;;35.30;53.00;;;;;;4996967;28;19917;-81
2022/06/24 09:12:08;;;;;;;;;;;34.20;55.30;;;;;;4993311;28;19917;-82
2022/06/24 09:14:44;;;;;;;;;;;32.90;56.70;;;;;;4984206;28;19910;-83
2022/06/24 09:17:10;;;;;;;;;;;32.90;56.40;;;;;;4994832;28;19917;-83
2022/06/24 09:19:36;;;;;;;;;;;32.90;55.80;;;;;;4989464;28;19910;-83
2022/06/24 09:22:01;;;;;;;;;;;32.50;55.70;;;;;;4992830;28;20008;-82
2022/06/24 09:24:44;;;;;;;;;;;31.80;57.20;;;;;;4991891;28;19945;-82
2022/06/24 09:27:09;;;;;;;;;;;31.60;60.90;;;;;;4984172;28;19964;-82
2022/06/24 09:29:35;;;;;;;;;;;31.60;59.80;;;;;;4989866;28;20000;-81
2022/06/24 09:32:04;;;;;;;;;;;31.70;63.00;;;;;;4991649;28;19914;-83
2022/06/24 09:34:30;;;;;;;;;;;31.50;60.10;;;;;;4988376;28;19909;-82
2022/06/24 09:36:55;;;;;;;;;;;31.00;61.50;;;;;;4990368;28;20289;-78
2022/06/24 09:39:21;;;;;;;;;;;30.40;64.80;;;;;;4980093;28;19992;-83
2022/06/24 09:41:48;;;;;;;;;;;28.50;65.80;;;;;;4985847;28;19916;-81
2022/06/24 09:44:14;;;;;;;;;;;28.00;68.30;;;;;;4986392;28;20004;-83
2022/06/24 09:46:40;;;;;;;;;;;27.70;68.50;;;;;;4986270;28;19968;-81
2022/06/24 09:49:07;;;;;;;;;;;27.20;71.90;;;;;;4991204;28;19909;-82
2022/06/24 09:51:33;;;;;;;;;;;27.40;73.90;;;;;;4994177;28;19936;-81
2022/06/24 09:53:59;;;;;;;;;;;27.00;72.10;;;;;;4992887;28;19951;-82
2022/06/24 09:56:24;;;;;;;;;;;26.90;73.00;;;;;;4995005;28;19914;-81
2022/06/24 10:01:36;;;;;;;;;;;27.30;73.30;;;;;;4994848;28;19920;-81
2022/06/24 10:04:05;;;;;;;;;;;27.40;71.20;;;;;;4999787;28;19910;-81
2022/06/24 10:06:32;;;;;;;;;;;27.50;71.50;;;;;;4995164;28;19914;-82
2022/06/24 10:08:59;;;;;;;;;;;27.70;71.70;;;;;;4990193;28;19916;-80
2022/06/24 10:11:25;;;;;;;;;;;27.60;66.90;;;;;;4996080;28;19913;-82
2022/06/24 10:13:51;;;;;;;;;;;27.70;69.60;;;;;;4992513;28;19910;-80
2022/06/24 10:16:17;;;;;;;;;;;29.00;70.00;;;;;;4990925;28;20474;-81
2022/06/24 10:18:43;;;;;;;;;;;28.30;68.10;;;;;;4994344;28;19916;-81
2022/06/24 10:21:10;;;;;;;;;;;29.50;66.80;;;;;;4999602;28;20008;-82
2022/06/24 10:23:41;;;;;;;;;;;29.60;68.70;;;;;;4987461;28;19937;-81
2022/06/24 10:26:17;;;;;;;;;;;29.50;66.20;;;;;;4988865;28;19990;-81
2022/06/24 10:29:03;;;;;;;;;;;28.90;62.90;;;;;;4992174;28;19914;-83
2022/06/24 10:31:29;;;;;;;;;;;;;;;;;;4989880;28;20203;-81
2022/06/24 10:33:54;;;;;;;;;;;28.10;67.90;;;;;;4995250;28;19921;-82
2022/06/24 10:36:29;;;;;;;;;;;28.10;67.00;;;;;;4992863;28;20024;-82
2022/06/24 10:39:06;;;;;;;;;;;28.10;68.00;;;;;;4986083;28;19921;-83
2022/06/24 10:41:46;;;;;;;;;;;28.20;69.10;;;;;;4983261;28;19941;-83
2022/06/24 10:44:21;;;;;;;;;;;27.90;71.30;;;;;;4990731;28;19909;-83
2022/06/24 10:46:46;;;;;;;;;;;27.60;69.70;;;;;;4995495;28;19927;-82
2022/06/24 10:49:12;;;;;;;;;;;27.50;70.80;;;;;;4991597;28;19957;-83
2022/06/24 10:51:37;;;;;;;;;;;27.30;71.30;;;;;;4990456;28;20455;-80
2022/06/24 10:54:03;;;;;;;;;;;27.00;71.40;;;;;;4982194;28;19918;-83
2022/06/24 10:56:41;;;;;;;;;;;26.70;69.80;;;;;;4993473;28;19923;-81
2022/06/24 10:59:06;;;;;;;;;;;26.60;72.00;;;;;;4984854;28;19952;-79
2022/06/24 11:01:32;;;;;;;;;;;26.40;71.90;;;;;;4977020;28;20513;-84
2022/06/24 11:04:00;;;;;;;2.15;0.75;;;26.40;70.70;;;;;;4992009;28;19949;-82
2022/06/24 11:06:26;;;;;;;1.85;0.75;;;;;;;;;;4992169;28;20030;-82
2022/06/24 11:08:52;;;;;;;2.10;0.65;;;;;;;;;;4990359;28;20026;-82
2022/06/24 11:11:31;;;;;;;3.92;0.60;;;26.40;82.00;;;;;;4992724;28;20031;-80
2022/06/24 11:13:57;;;;;;;2.40;0.68;;;;;;;;;;4992102;28;20061;-81
2022/06/24 11:16:27;;;;;;;1.52;0.40;;;27.40;71.30;;;;;;4985333;28;20034;-84
2022/06/24 11:18:53;;;;;;;1.65;0.47;;;;;;;;;;4984770;28;20022;-82
2022/06/24 11:21:19;;;;;;;1.45;0.47;;;;;;;;;;4987096;28;20037;-82
2022/06/24 11:23:47;;;;;;;1.90;0.60;;;27.20;68.30;;;;;;4988568;28;20030;-83
2022/06/24 11:26:13;;;;;;;0.93;0.20;;;;;;;;;;4984817;28;20026;-83
2022/06/24 11:28:40;;;;;;;1.58;0.30;;;27.50;69.90;;;;;;4991689;28;20034;-82
2022/06/24 11:31:24;;;;;;;2.17;0.75;;;28.10;77.00;;;;;;4988779;28;20058;-81
2022/06/24 11:34:06;;;;;;;1.50;0.40;;;27.60;68.20;;;;;;5004599;28;20026;-82
2022/06/24 11:36:32;;;;;;;;;;;27.40;67.10;;;;;;4998755;28;20141;-82
2022/06/24 11:39:03;;;;;;;1.73;0.30;;;27.20;68.70;;;;;;4998325;28;19928;-84
2022/06/24 11:41:31;;;;;;;4.10;0.55;;;28.10;69.40;;;;;;5000996;28;20026;-81
2022/06/24 11:43:57;;;;;;;1.58;0.30;;;;;;;;;;4998385;28;20050;-82
2022/06/24 11:46:23;;;;;;;;;;;27.70;68.80;;;;;;4993559;28;20045;-83
2022/06/24 11:48:49;;;;;;;;;;;28.10;67.10;;;;;;4994005;28;19909;-83
2022/06/24 11:51:22;;;;;;;;;;;28.00;63.40;;;;;;4985141;28;20004;-83
2022/06/24 11:53:57;;;;;;;;;;;28.00;61.30;;;;;;4989334;28;19949;-84
2022/06/24 11:56:24;;;;;;;;;;;28.70;63.10;;;;;;4987231;28;19921;-83
2022/06/24 11:58:49;;;;;;;;;;;28.40;61.80;;;;;;4991611;28;19933;-81
2022/06/24 12:01:15;;;;;;;;;;;27.90;66.00;;;;;;4988037;28;19917;-82
2022/06/24 12:03:41;;;;;;;;;;;;;;;;;;4991249;28;19909;-84
2022/06/24 12:06:06;;;;;;;;;;;28.80;61.90;;;;;;4984550;28;19953;-82
2022/06/24 12:08:32;;;;;;;;;;;28.10;62.70;;;;;;4989823;28;19917;-80
2022/06/24 12:10:58;;;;;;;;;;;29.40;62.50;;;;;;4992167;28;19909;-80
2022/06/24 12:13:27;;;;;;;;;;;28.70;65.40;;;;;;4986957;28;20326;-84
2022/06/24 12:15:53;;;;;;;;;;;29.60;64.50;;;;;;4979483;28;20501;-82
2022/06/24 12:18:21;;;;;;;;;;;28.60;59.90;;;;;;4987219;28;19958;-81
2022/06/24 12:21:06;;;;;;;;;;;28.20;60.30;;;;;;4983973;28;19925;-80
2022/06/24 12:23:39;;;;;;;;;;;28.30;60.30;;;;;;4995010;28;19921;-79
2022/06/24 12:26:06;;;;;;;;;;;29.10;61.80;;;;;;4991729;28;19924;-81
2022/06/24 12:28:31;;;;;;;;;;;28.20;60.60;;;;;;4989560;28;19963;-84
2022/06/24 12:30:58;;;;;;;;;;;28.40;62.00;;;;;;4980954;28;20312;-80
2022/06/24 12:33:27;;;;;;;;;;;27.50;60.10;;;;;;4991973;28;19916;-82
2022/06/24 12:36:02;;;;;;;;;;;27.30;62.30;;;;;;4980339;28;19914;-80
2022/06/24 12:38:28;;;;;;;;;;;27.40;61.30;;;;;;4986494;28;19929;-82
2022/06/24 12:41:04;;;;;;;;;;;27.40;61.40;;;;;;4986311;28;19913;-81
2022/06/24 12:43:29;;;;;;;;;;;28.30;61.80;;;;;;4989819;28;19917;-80
2022/06/24 12:45:56;;;;;;;;;;;27.60;62.50;;;;;;4987867;28;19922;-79
2022/06/24 12:51:06;;;;;;;;;;;28.40;61.30;;;;;;4981202;28;19967;-80
2022/06/24 12:53:32;;;;;;;;;;;28.40;62.10;;;;;;4989957;28;19918;-81
2022/06/24 12:55:58;;;;;;;;;;;27.30;63.20;;;;;;4982007;28;19921;-81
2022/06/24 12:58:23;;;;;;;;;;;27.10;64.40;;;;;;4979178;28;19910;-78
2022/06/24 13:00:49;;;;;;;1.75;0.55;;;27.30;73.80;;;;;;4986460;28;19910;-80
2022/06/24 13:03:17;;;;;;;0.28;0.17;;;28.30;61.30;;;;;;4988993;28;20049;-81
2022/06/24 13:05:43;;;;;;;2.35;0.25;;;;;;;;;;4985366;28;20046;-82
2022/06/24 13:08:09;;;;;;;0.55;0.20;;;;;;;;;;4982734;28;20066;-80
2022/06/24 13:10:35;;;;;;;1.27;0.32;;;27.60;66.90;;;;;;4984058;28;20058;-77
2022/06/24 13:13:02;;;;;;;0.43;0.28;;;;;;;;;;4985978;28;20514;-79
2022/06/24 13:15:28;;;;;;;1.15;0.40;;;27.80;70.90;;;;;;4987266;28;20153;-80
2022/06/24 13:17:53;;;;;;;0.88;0.20;;;27.30;74.10;;;;;;4985594;28;20117;-77
2022/06/24 13:20:19;;;;;;;1.85;0.70;;;;;;;;;;4983325;28;20030;-79
2022/06/24 13:22:45;;;;;;;2.22;0.30;;;28.40;68.70;;;;;;4984055;28;20466;-80
2022/06/24 13:25:11;;;;;;;1.05;0.30;;;;;;;;;;4978511;28;20039;-81
2022/06/24 13:27:38;;;;;;;2.70;0.38;;;28.50;75.70;;;;;;4988620;28;20117;-79
2022/06/24 13:30:05;;;;;;;0.65;0.20;;;28.50;65.20;;;;;;4988586;28;20029;-79
2022/06/24 13:32:31;;;;;;;0.60;0.30;;;;;;;;;;4986730;28;20157;-79
2022/06/24 13:34:57;;;;;;;1.38;0.52;;;27.90;62.20;;;;;;4985227;28;20566;-79
2022/06/24 13:37:23;;;;;;;1.10;0.30;;;;;;;;;;4988868;28;20027;-77
2022/06/24 13:39:49;;;;;;;1.38;0.40;;;;;;;;;;4986110;28;20054;-77
2022/06/24 13:42:15;;;;;;;0.63;0.30;;;;;;;;;;4985898;28;20045;-82
2022/06/24 13:44:41;;;;;;;1.02;0.20;;;;;;;;;;4981742;28;20037;-81
2022/06/24 13:47:07;;;;;;;2.20;0.47;;;;;;;;;;4984756;28;20035;-80
2022/06/24 13:49:33;;;;;;;1.23;0.30;;;;;;;;;;4980201;28;20030;-79
2022/06/24 13:51:59;;;;;;;0.95;0.47;;;;;;;;;;4978651;28;20033;-77
2022/06/24 13:54:26;;;;;;;1.05;0.30;;;;;;;;;;4975265;28;20037;-77
2022/06/24 13:56:52;;;;;;;1.50;0.60;;;;;;;;;;4984537;28;20022;-79
2022/06/24 13:59:18;;;;;;;2.15;0.20;;;;;;;;;;4982362;28;20041;-79
2022/06/24 14:01:44;;;;;;;0.70;0.20;;;;;;;;;;4990592;28;20034;-81
2022/06/24 14:04:10;;;;;;;0.30;0.30;;;27.20;61.70;;;;;;4992069;28;20041;-80
2022/06/24 14:06:36;;;;;;;0.20;0.20;;;;;;;;;;4990318;28;20122;-81
2022/06/24 14:09:04;;;;;;;0.40;0.25;;;27.20;60.90;;;;;;4982548;28;20040;-81
2022/06/24 14:11:30;;;;;;;0.70;0.30;;;28.50;77.00;;;;;;4996340;28;20025;-79
2022/06/24 14:13:57;;;;;;;0.82;0.55;;;;;;;;;;4985360;28;20038;-83
2022/06/24 14:16:23;;;;;;;1.20;0.32;;;;;;;;;;4984265;28;20026;-82
2022/06/24 14:18:49;;;;;;;1.35;0.40;;;;;;;;;;4990101;28;20037;-79
2022/06/24 14:21:15;;;;;;;0.85;0.40;;;;;;;;;;4984235;28;20038;-81
2022/06/24 14:26:26;;;;;;;0.95;0.30;;;;;;;;;;4984900;28;20114;-84
2022/06/24 14:28:51;;;;;;;0.82;0.47;;;;;;;;;;4974154;28;20032;-81
2022/06/24 14:31:20;;;;;;;1.38;0.35;;;28.60;60.10;;;;;;4982608;28;20426;-81
2022/06/24 14:33:46;;;;;;;1.15;0.28;;;27.50;70.60;;;;;;4977551;28;20509;-83
2022/06/24 14:36:13;;;;;;;7.43;1.38;;;28.70;70.00;;;;;;4981804;28;20027;-84
2022/06/24 14:41:23;;;;;;;2.35;0.20;;;28.40;79.50;;;;;;4981628;28;20126;-78
2022/06/24 14:43:49;;;;;;;1.20;0.25;;;28.10;69.30;;;;;;4980842;28;20026;-83
2022/06/24 14:46:14;;;;;;;;;;;27.40;64.90;;;;;;4985987;28;20054;-82
2022/06/24 14:48:40;;;;;;;1.48;0.40;;;;;;;;;;4979385;28;20333;-80